createdAt,value
2017-03-31T00:02:04.123Z,13.36
2017-03-31T00:05:09.690Z,13.34
2017-03-31T00:08:15.445Z,13.32
2017-03-31T00:11:20.956Z,13.32
2017-03-31T00:14:26.734Z,13.33
2017-03-31T00:20:37.488Z,13.37
2017-03-31T00:26:49.204Z,13.35
2017-03-31T00:29:54.573Z,13.35
2017-03-31T00:33:00.263Z,13.33
2017-03-31T00:36:05.777Z,13.31
2017-03-31T00:39:11.407Z,13.24
2017-03-31T00:42:16.851Z,13.13
2017-03-31T00:45:22.519Z,13.06
2017-03-31T00:48:28.207Z,13.03
2017-03-31T00:51:33.642Z,12.99
2017-03-31T00:57:44.171Z,12.96
2017-03-31T01:00:49.881Z,12.96
2017-03-31T01:03:55.549Z,12.96
2017-03-31T01:07:01.165Z,12.96
2017-03-31T01:10:06.615Z,12.94
2017-03-31T01:13:12.146Z,12.91
2017-03-31T01:16:17.517Z,12.85
2017-03-31T01:19:23.116Z,12.76
2017-03-31T01:22:28.234Z,12.69
2017-03-31T01:25:33.954Z,12.59
2017-03-31T01:31:45.747Z,12.54
2017-03-31T01:34:51.392Z,12.54
2017-03-31T01:37:57.061Z,12.53
2017-03-31T01:41:02.618Z,12.50
2017-03-31T01:44:07.978Z,12.44
2017-03-31T01:47:13.520Z,12.40
2017-03-31T01:50:19.193Z,12.40
2017-03-31T01:53:24.932Z,12.38
2017-03-31T01:56:30.302Z,12.37
2017-03-31T01:59:35.973Z,12.39
2017-03-31T02:02:41.459Z,12.40
2017-03-31T02:05:47.187Z,12.40
2017-03-31T02:08:52.745Z,12.42
2017-03-31T02:11:58.393Z,12.41
2017-03-31T02:15:04.046Z,12.40
2017-03-31T02:18:09.713Z,12.38
2017-03-31T02:21:15.399Z,12.37
2017-03-31T02:24:21.021Z,12.36
2017-03-31T02:27:26.578Z,12.34
2017-03-31T02:30:32.283Z,12.31
2017-03-31T02:33:37.324Z,12.28
2017-03-31T02:39:48.966Z,12.20
2017-03-31T02:42:54.344Z,12.16
2017-03-31T02:45:59.862Z,12.11
2017-03-31T02:49:04.855Z,12.06
2017-03-31T02:52:10.277Z,12.01
2017-03-31T02:55:15.704Z,11.98
2017-03-31T02:58:21.261Z,11.95
2017-03-31T03:01:26.731Z,11.94
2017-03-31T03:04:32.429Z,11.94
2017-03-31T03:07:37.986Z,11.95
2017-03-31T03:10:43.520Z,12.00
2017-03-31T03:19:58.326Z,12.13
2017-03-31T03:23:03.946Z,12.13
2017-03-31T03:26:09.619Z,12.13
2017-03-31T03:29:15.069Z,12.10
2017-03-31T03:32:20.585Z,12.05
2017-03-31T03:35:25.773Z,12.02
2017-03-31T03:38:31.388Z,11.98
2017-03-31T03:41:36.841Z,11.92
2017-03-31T03:44:42.285Z,11.85
2017-03-31T03:47:47.914Z,11.80
2017-03-31T03:50:53.589Z,11.80
2017-03-31T03:57:04.060Z,11.84
2017-03-31T04:00:09.487Z,11.86
2017-03-31T04:03:14.811Z,11.88
2017-03-31T04:06:20.278Z,11.86
2017-03-31T04:09:25.889Z,11.84
2017-03-31T04:12:31.424Z,11.81
2017-03-31T04:15:36.847Z,11.77
2017-03-31T04:18:42.398Z,11.73
2017-03-31T04:21:47.971Z,11.69
2017-03-31T04:24:53.530Z,11.66
2017-03-31T04:27:59.129Z,11.63
2017-03-31T04:31:04.736Z,11.61
2017-03-31T04:34:10.266Z,11.61
2017-03-31T04:37:15.723Z,11.59
2017-03-31T04:40:21.308Z,11.58
2017-03-31T04:43:27.314Z,11.60
2017-03-31T04:46:31.914Z,11.58
2017-03-31T04:49:37.404Z,11.58
2017-03-31T04:52:42.958Z,11.59
2017-03-31T04:55:48.000Z,11.62
2017-03-31T04:58:53.538Z,11.65
2017-03-31T05:01:59.064Z,11.67
2017-03-31T05:05:04.231Z,11.72
2017-03-31T05:08:09.455Z,11.74
2017-03-31T05:11:14.800Z,11.76
2017-03-31T05:14:20.224Z,11.78
2017-03-31T05:17:25.900Z,11.80
2017-03-31T05:20:31.483Z,11.81
2017-03-31T05:23:37.021Z,11.82
2017-03-31T05:26:42.595Z,11.83
2017-03-31T05:29:48.144Z,11.85
2017-03-31T05:32:53.629Z,11.88
2017-03-31T05:35:59.186Z,11.90
2017-03-31T05:39:04.635Z,11.93
2017-03-31T05:42:10.606Z,11.96
2017-03-31T05:45:16.184Z,11.96
2017-03-31T05:48:21.709Z,11.96
2017-03-31T05:54:33.137Z,11.85
2017-03-31T05:57:38.783Z,11.82
2017-03-31T06:00:36.303Z,11.84
2017-03-31T06:03:49.962Z,11.85
2017-03-31T06:06:50.521Z,11.86
2017-03-31T06:13:07.421Z,11.94
2017-03-31T06:16:13.022Z,12.00
2017-03-31T06:19:18.670Z,12.04
2017-03-31T06:22:24.215Z,12.10
2017-03-31T06:25:29.876Z,12.14
2017-03-31T06:28:35.327Z,12.19
2017-03-31T06:31:40.975Z,12.26
2017-03-31T06:34:46.249Z,12.33
2017-03-31T06:37:51.961Z,12.39
2017-03-31T06:40:57.517Z,12.44
2017-03-31T06:44:02.251Z,12.47
2017-03-31T06:47:07.909Z,12.52
2017-03-31T06:50:13.545Z,12.57
2017-03-31T06:53:19.122Z,12.63
2017-03-31T06:56:24.791Z,12.69
2017-03-31T06:59:30.481Z,12.75
2017-03-31T07:02:36.202Z,12.79
2017-03-31T07:05:41.924Z,12.86
2017-03-31T07:08:47.631Z,12.92
2017-03-31T07:11:53.253Z,12.96
2017-03-31T07:14:58.820Z,13.00
2017-03-31T07:18:04.531Z,13.05
2017-03-31T07:21:10.014Z,13.09
2017-03-31T07:24:15.758Z,13.16
2017-03-31T07:27:21.056Z,13.22
2017-03-31T07:30:26.610Z,13.30
2017-03-31T07:33:32.431Z,13.36
2017-03-31T07:36:38.122Z,13.46
2017-03-31T07:39:43.591Z,13.55
2017-03-31T07:42:49.302Z,13.67
2017-03-31T07:45:55.109Z,13.77
2017-03-31T07:52:06.796Z,14.01
2017-03-31T07:55:12.646Z,14.12
2017-03-31T07:58:18.509Z,14.24
2017-03-31T08:01:24.316Z,14.34
2017-03-31T08:07:35.576Z,14.54
2017-03-31T08:10:40.919Z,14.63
2017-03-31T08:13:46.604Z,14.73
2017-03-31T08:16:52.150Z,14.83
2017-03-31T08:19:57.947Z,14.95
2017-03-31T08:23:03.732Z,15.05
2017-03-31T08:26:09.429Z,15.13
2017-03-31T08:29:15.343Z,15.23
2017-03-31T08:32:21.097Z,15.35
2017-03-31T08:35:26.869Z,15.46
2017-03-31T08:38:32.540Z,15.58
2017-03-31T08:41:37.952Z,15.75
2017-03-31T08:44:43.610Z,15.90
2017-03-31T08:47:49.262Z,16.04
2017-03-31T08:50:55.138Z,16.14
2017-03-31T08:54:00.928Z,16.24
2017-03-31T08:57:06.828Z,16.33
2017-03-31T09:00:12.413Z,16.45
2017-03-31T09:03:18.247Z,16.56
2017-03-31T09:06:24.039Z,16.70
2017-03-31T09:09:29.902Z,16.87
2017-03-31T09:15:42.067Z,17.09
2017-03-31T09:18:47.985Z,17.22
2017-03-31T09:21:54.051Z,17.38
2017-03-31T09:25:00.058Z,17.53
2017-03-31T09:28:05.350Z,17.65
2017-03-31T09:31:11.251Z,17.79
2017-03-31T09:34:17.051Z,17.95
2017-03-31T09:37:22.978Z,18.06
2017-03-31T09:40:28.502Z,18.15
2017-03-31T09:43:34.439Z,18.22
2017-03-31T09:46:40.403Z,18.27
2017-03-31T09:49:46.291Z,18.42
2017-03-31T09:52:52.180Z,18.59
2017-03-31T09:55:58.248Z,18.75
2017-03-31T09:58:56.260Z,18.93
2017-03-31T10:02:10.651Z,19.01
2017-03-31T10:05:16.560Z,19.10
2017-03-31T10:08:22.261Z,19.28
2017-03-31T10:11:28.326Z,19.64
2017-03-31T10:14:34.339Z,20.06
2017-03-31T10:17:40.452Z,20.40
2017-03-31T10:20:46.208Z,20.53
2017-03-31T10:23:52.258Z,20.73
2017-03-31T10:26:58.228Z,21.15
2017-03-31T10:30:04.216Z,21.58
2017-03-31T10:33:10.257Z,21.67
2017-03-31T10:36:16.314Z,21.62
2017-03-31T10:39:22.284Z,21.63
2017-03-31T10:42:28.457Z,21.83
2017-03-31T10:45:34.538Z,22.01
2017-03-31T10:48:40.564Z,22.14
2017-03-31T10:51:46.628Z,22.35
2017-03-31T10:54:52.383Z,22.64
2017-03-31T10:57:58.532Z,22.92
2017-03-31T11:04:11.780Z,23.29
2017-03-31T11:07:17.962Z,23.50
2017-03-31T11:10:24.215Z,23.48
2017-03-31T11:13:30.208Z,23.47
2017-03-31T11:16:36.364Z,23.77
2017-03-31T11:19:42.472Z,23.99
2017-03-31T11:22:48.818Z,24.38
2017-03-31T11:25:54.861Z,24.60
2017-03-31T11:29:01.095Z,24.83
2017-03-31T11:32:07.348Z,24.94
2017-03-31T11:35:13.608Z,24.84
2017-03-31T11:38:19.773Z,24.97
2017-03-31T11:41:25.988Z,24.98
2017-03-31T11:44:32.180Z,25.06
2017-03-31T11:50:43.763Z,25.14
2017-03-31T11:53:50.007Z,25.43
2017-03-31T11:56:56.328Z,25.75
2017-03-31T12:00:02.491Z,25.97
2017-03-31T12:03:08.831Z,25.99
2017-03-31T12:06:15.124Z,26.02
2017-03-31T12:09:21.395Z,26.05
2017-03-31T12:12:27.687Z,26.05
2017-03-31T12:15:33.961Z,25.74
2017-03-31T12:18:40.118Z,25.47
2017-03-31T12:21:46.188Z,25.63
2017-03-31T12:24:52.500Z,25.63
2017-03-31T12:27:58.720Z,25.79
2017-03-31T12:31:04.951Z,25.81
2017-03-31T12:34:11.322Z,25.99
2017-03-31T12:37:17.534Z,25.67
2017-03-31T12:40:23.740Z,25.55
2017-03-31T12:43:30.136Z,25.57
2017-03-31T12:46:36.142Z,25.55
2017-03-31T12:49:41.984Z,25.65
2017-03-31T12:52:48.258Z,25.75
2017-03-31T12:55:54.097Z,25.93
2017-03-31T12:59:00.298Z,26.02
2017-03-31T13:02:06.639Z,26.03
2017-03-31T13:05:12.842Z,25.92
2017-03-31T13:08:19.103Z,25.87
2017-03-31T13:11:25.336Z,25.71
2017-03-31T13:14:31.460Z,25.56
2017-03-31T13:17:37.645Z,25.81
2017-03-31T13:20:44.024Z,26.02
2017-03-31T13:23:50.098Z,25.97
2017-03-31T13:26:56.249Z,25.75
2017-03-31T13:30:02.413Z,25.73
2017-03-31T13:33:08.609Z,25.46
2017-03-31T13:36:14.631Z,25.22
2017-03-31T13:39:20.829Z,25.10
2017-03-31T13:42:27.079Z,25.11
2017-03-31T13:48:39.819Z,25.08
2017-03-31T13:51:46.016Z,25.06
2017-03-31T13:54:52.233Z,24.90
2017-03-31T13:57:58.406Z,24.82
2017-03-31T14:01:04.667Z,24.57
2017-03-31T14:04:10.667Z,24.44
2017-03-31T14:07:16.751Z,24.24
2017-03-31T14:10:22.736Z,24.10
2017-03-31T14:13:29.013Z,24.06
2017-03-31T14:16:35.047Z,24.15
2017-03-31T14:19:36.215Z,24.25
2017-03-31T14:22:47.817Z,24.27
2017-03-31T14:25:54.043Z,24.16
2017-03-31T14:29:00.254Z,24.09
2017-03-31T14:32:06.264Z,24.03
2017-03-31T14:35:12.364Z,24.10
2017-03-31T14:38:18.497Z,24.08
2017-03-31T14:41:24.675Z,23.93
2017-03-31T14:44:30.848Z,23.73
2017-03-31T14:47:37.123Z,23.74
2017-03-31T14:50:43.196Z,23.78
2017-03-31T14:53:49.378Z,23.72
2017-03-31T14:56:55.476Z,23.69
2017-03-31T15:00:01.598Z,23.60
2017-03-31T15:03:07.292Z,23.59
2017-03-31T15:06:13.400Z,23.55
2017-03-31T15:09:19.603Z,23.52
2017-03-31T15:12:25.766Z,23.59
2017-03-31T15:15:32.039Z,23.55
2017-03-31T15:18:38.295Z,23.53
2017-03-31T15:21:44.582Z,23.43
2017-03-31T15:24:50.761Z,23.40
2017-03-31T15:27:56.999Z,23.35
2017-03-31T15:31:03.021Z,23.29
2017-03-31T15:34:09.074Z,23.28
2017-03-31T15:37:14.976Z,23.26
2017-03-31T15:40:21.254Z,23.35
2017-03-31T15:43:27.451Z,23.48
2017-03-31T15:46:33.835Z,23.58
2017-03-31T15:52:46.325Z,23.70
2017-03-31T15:55:47.598Z,23.68
2017-03-31T15:58:59.260Z,23.60
2017-03-31T16:02:05.537Z,23.59
2017-03-31T16:05:12.808Z,23.56
2017-03-31T16:08:18.974Z,23.41
2017-03-31T16:11:24.774Z,23.26
2017-03-31T16:14:30.902Z,23.21
2017-03-31T16:17:36.558Z,23.15
2017-03-31T16:20:42.559Z,23.00
2017-03-31T16:23:48.688Z,22.90
2017-03-31T16:26:54.772Z,22.89
2017-03-31T16:29:55.928Z,22.83
2017-03-31T16:33:07.485Z,22.69
2017-03-31T16:36:13.601Z,22.59
2017-03-31T16:39:14.673Z,22.51
2017-03-31T16:42:26.274Z,22.40
2017-03-31T16:45:32.279Z,22.31
2017-03-31T16:48:38.326Z,22.29
2017-03-31T16:51:46.273Z,22.14
2017-03-31T16:54:48.426Z,21.99
2017-03-31T16:57:54.312Z,22.01
2017-03-31T17:01:00.423Z,21.93
2017-03-31T17:04:06.085Z,21.86
2017-03-31T17:10:14.683Z,21.66
2017-03-31T17:13:20.725Z,21.63
2017-03-31T17:16:26.754Z,21.58
2017-03-31T17:19:32.726Z,21.53
2017-03-31T17:25:44.474Z,21.34
2017-03-31T17:28:50.480Z,21.21
2017-03-31T17:31:56.427Z,21.17
2017-03-31T17:35:02.517Z,21.06
2017-03-31T17:38:08.412Z,21.03
2017-03-31T17:41:14.407Z,21.03
2017-03-31T17:44:20.475Z,20.93
2017-03-31T17:47:26.423Z,20.84
2017-03-31T17:50:32.577Z,20.67
2017-03-31T17:53:38.220Z,20.58
2017-03-31T17:56:44.249Z,20.54
2017-03-31T17:59:50.355Z,20.47
2017-03-31T18:02:56.364Z,20.45
2017-03-31T18:06:02.437Z,20.38
2017-03-31T18:09:08.393Z,20.34
2017-03-31T18:12:14.169Z,20.28
2017-03-31T18:15:20.213Z,20.26
2017-03-31T18:18:26.068Z,20.14
2017-03-31T18:21:32.021Z,20.06
2017-03-31T18:24:37.877Z,20.01
2017-03-31T18:27:43.849Z,19.86
2017-03-31T18:30:49.620Z,19.79
2017-03-31T18:33:55.670Z,19.73
2017-03-31T18:37:02.041Z,19.67
2017-03-31T18:40:08.020Z,19.59
2017-03-31T18:43:14.049Z,19.53
2017-03-31T18:46:20.033Z,19.42
2017-03-31T18:49:26.054Z,19.38
2017-03-31T18:52:31.818Z,19.33
2017-03-31T18:55:37.889Z,19.27
2017-03-31T18:58:43.266Z,19.17
2017-03-31T19:01:49.217Z,19.15
2017-03-31T19:04:55.007Z,19.16
2017-03-31T19:08:01.101Z,19.11
2017-03-31T19:11:07.056Z,19.12
2017-03-31T19:14:12.978Z,19.03
2017-03-31T19:17:18.916Z,19.01
2017-03-31T19:20:25.036Z,18.90
2017-03-31T19:23:30.789Z,18.85
2017-03-31T19:26:36.721Z,18.77
2017-03-31T19:29:42.460Z,18.74
2017-03-31T19:32:48.409Z,18.72
2017-03-31T19:39:00.641Z,18.60
2017-03-31T19:42:06.609Z,18.58
2017-03-31T19:45:12.480Z,18.50
2017-03-31T19:48:18.418Z,18.44
2017-03-31T19:51:23.976Z,18.41
2017-03-31T19:54:29.943Z,18.35
2017-03-31T19:57:35.879Z,18.29
2017-03-31T20:00:41.845Z,18.17
2017-03-31T20:03:47.498Z,18.07
2017-03-31T20:06:53.322Z,18.02
2017-03-31T20:09:59.253Z,17.97
2017-03-31T20:13:04.865Z,17.89
2017-03-31T20:16:10.776Z,17.84
2017-03-31T20:19:16.471Z,17.82
2017-03-31T20:22:22.128Z,17.79
2017-03-31T20:25:28.080Z,17.77
2017-03-31T20:28:33.928Z,17.74
2017-03-31T20:31:39.798Z,17.57
2017-03-31T20:34:45.656Z,17.51
2017-03-31T20:37:51.916Z,17.38
2017-03-31T20:40:57.787Z,17.34
2017-03-31T20:44:03.017Z,17.34
2017-03-31T20:47:08.783Z,17.39
2017-03-31T20:50:09.511Z,17.39
2017-03-31T20:53:20.903Z,17.38
2017-03-31T20:56:26.676Z,17.34
2017-03-31T20:59:32.368Z,17.27
2017-03-31T21:02:38.237Z,17.22
2017-03-31T21:05:43.864Z,17.15
2017-03-31T21:08:49.916Z,17.11
2017-03-31T21:11:55.322Z,17.03
2017-03-31T21:15:01.157Z,16.94
2017-03-31T21:18:07.081Z,16.86
2017-03-31T21:21:12.808Z,16.84
2017-03-31T21:24:18.728Z,16.80
2017-03-31T21:27:24.553Z,16.80
2017-03-31T21:30:30.576Z,16.75
2017-03-31T21:33:36.205Z,16.69
2017-03-31T21:36:42.100Z,16.65
2017-03-31T21:39:48.012Z,16.59
2017-03-31T21:42:53.893Z,16.60
2017-03-31T21:45:59.635Z,16.55
2017-03-31T21:49:05.399Z,16.53
2017-03-31T21:52:11.272Z,16.49
2017-03-31T21:55:17.133Z,16.40
2017-03-31T21:58:22.801Z,16.35
2017-03-31T22:01:28.631Z,16.31
2017-03-31T22:04:34.326Z,16.27
2017-03-31T22:07:40.144Z,16.23
2017-03-31T22:10:45.964Z,16.21
2017-03-31T22:13:51.778Z,16.17
2017-03-31T22:16:57.622Z,16.09
2017-03-31T22:20:03.536Z,16.03
2017-03-31T22:23:09.413Z,15.95
2017-03-31T22:26:14.761Z,15.78
2017-03-31T22:29:20.611Z,15.64
2017-03-31T22:32:27.063Z,15.52
2017-03-31T22:35:32.909Z,15.41
2017-03-31T22:38:38.488Z,15.33
2017-03-31T22:41:44.251Z,15.28
2017-03-31T22:44:50.014Z,15.24
2017-03-31T22:47:55.832Z,15.24
2017-03-31T22:51:01.686Z,15.23
2017-03-31T22:54:06.921Z,15.25
2017-03-31T22:57:12.888Z,15.30
2017-03-31T23:00:18.645Z,15.28
2017-03-31T23:03:24.497Z,15.11
2017-03-31T23:06:29.820Z,14.95
2017-03-31T23:09:35.775Z,14.85
2017-03-31T23:12:41.424Z,14.74
2017-03-31T23:15:47.288Z,14.65
2017-03-31T23:18:52.874Z,14.63
2017-03-31T23:25:03.641Z,14.63
2017-03-31T23:31:15.551Z,14.52
2017-03-31T23:34:21.368Z,14.54
2017-03-31T23:37:26.985Z,14.50
2017-03-31T23:40:32.724Z,14.40
2017-03-31T23:43:38.432Z,14.39
2017-03-31T23:46:44.028Z,14.33
2017-03-31T23:49:49.671Z,14.17
2017-03-31T23:56:01.280Z,14.00
2017-03-31T23:59:06.788Z,13.90
